Time;durP1;ratioP1;P1;durP2;ratioP2;P2;SDS_P1;SDS_P2;PMS_P1;PMS_P2;Temp;Humidity;BMP_temperature;BMP_pressure;BME280_temperature;BME280_humidity;BME280_pressure;Samples;Min_cycle;Max_cycle;Signal;HPM_P1;HPM_P2
2021/03/08 00:01:06;;;;;;;17.60;11.27;;;2.50;99.90;;;;;;5012572;28;20284;-81
2021/03/08 00:03:33;;;;;;;24.45;13.30;;;2.70;99.90;;;;;;5013435;28;20216;-82
2021/03/08 00:05:59;;;;;;;21.20;13.05;;;2.70;99.90;;;;;;5009940;28;20211;-81
2021/03/08 00:08:25;;;;;;;26.63;12.98;;;2.70;99.90;;;;;;5011385;28;20236;-80
2021/03/08 00:10:52;;;;;;;21.15;12.95;;;2.60;99.90;;;;;;5014164;28;20680;-81
2021/03/08 00:13:18;;;;;;;21.25;12.48;;;2.60;99.90;;;;;;5012113;28;20307;-80
2021/03/08 00:15:45;;;;;;;18.65;11.38;;;2.50;99.90;;;;;;5015161;28;20240;-80
2021/03/08 00:18:11;;;;;;;18.85;12.57;;;2.40;99.90;;;;;;5013227;28;20228;-81
2021/03/08 00:20:38;;;;;;;21.65;13.70;;;2.50;99.90;;;;;;5012648;28;20210;-79
2021/03/08 00:23:05;;;;;;;19.48;11.43;;;2.60;99.90;;;;;;5010207;28;20243;-81
2021/03/08 00:25:33;;;;;;;22.35;12.93;;;2.70;99.90;;;;;;5008240;28;20211;-82
2021/03/08 00:28:00;;;;;;;18.77;12.70;;;2.70;99.90;;;;;;5009671;28;20273;-82
2021/03/08 00:30:27;;;;;;;18.92;12.02;;;2.50;99.90;;;;;;5011455;28;20314;-82
2021/03/08 00:32:53;;;;;;;19.67;12.15;;;2.40;99.90;;;;;;5031238;28;20204;-82
2021/03/08 00:35:26;;;;;;;17.95;12.65;;;2.60;99.90;;;;;;5028682;28;20280;-81
2021/03/08 00:37:53;;;;;;;19.55;12.30;;;2.40;99.90;;;;;;5012935;28;20196;-80
2021/03/08 00:40:21;;;;;;;20.38;12.63;;;2.70;99.90;;;;;;5016529;28;20205;-81
2021/03/08 00:42:49;;;;;;;19.65;12.60;;;2.70;99.90;;;;;;5015400;28;20215;-80
2021/03/08 00:45:17;;;;;;;19.73;11.52;;;2.50;99.90;;;;;;5016013;28;20281;-80
2021/03/08 00:47:43;;;;;;;14.88;10.75;;;2.30;99.90;;;;;;5012216;28;20232;-79
2021/03/08 00:50:14;;;;;;;19.85;13.25;;;2.40;99.90;;;;;;5013300;28;20236;-82
2021/03/08 00:52:40;;;;;;;17.77;12.48;;;2.30;99.90;;;;;;5012350;28;20217;-81
2021/03/08 00:55:10;;;;;;;18.17;12.05;;;2.30;99.90;;;;;;5012240;28;20208;-80
2021/03/08 00:57:36;;;;;;;19.25;10.88;;;2.40;99.90;;;;;;5008790;28;20236;-81
2021/03/08 01:00:05;;;;;;;21.45;11.90;;;2.10;99.90;;;;;;5005624;28;20220;-81
2021/03/08 01:02:31;;;;;;;21.50;13.13;;;2.40;99.90;;;;;;5007901;28;20259;-79
2021/03/08 01:04:57;;;;;;;20.70;13.25;;;2.20;99.90;;;;;;5007769;28;20225;-80
2021/03/08 01:07:24;;;;;;;19.92;12.38;;;2.30;99.90;;;;;;5018049;28;20215;-81
2021/03/08 01:09:50;;;;;;;19.40;12.40;;;2.20;99.90;;;;;;5010867;28;20236;-80
2021/03/08 01:12:17;;;;;;;19.42;12.48;;;2.20;99.90;;;;;;5012834;28;20204;-80
2021/03/08 01:14:44;;;;;;;18.02;12.38;;;2.20;99.90;;;;;;5013443;28;20292;-81
2021/03/08 01:17:11;;;;;;;17.67;11.60;;;2.20;99.90;;;;;;5013100;28;20236;-81
2021/03/08 01:19:37;;;;;;;18.83;12.38;;;2.00;99.90;;;;;;5014106;28;20235;-79
2021/03/08 01:22:04;;;;;;;16.90;11.05;;;2.00;99.90;;;;;;5013522;28;20239;-79
2021/03/08 01:24:30;;;;;;;18.92;12.13;;;2.10;99.90;;;;;;5019373;23;20279;-80
2021/03/08 01:26:57;;;;;;;17.77;11.07;;;2.00;99.90;;;;;;5014604;28;20271;-81
2021/03/08 01:29:24;;;;;;;18.33;12.50;;;2.20;99.90;;;;;;5007284;28;20314;-82
2021/03/08 01:31:50;;;;;;;18.13;11.75;;;2.10;99.90;;;;;;5016315;28;20212;-81
2021/03/08 01:34:17;;;;;;;18.17;11.98;;;2.10;99.90;;;;;;5028856;28;20228;-82
2021/03/08 01:36:43;;;;;;;19.75;12.25;;;2.10;99.90;;;;;;5018337;28;20232;-83
2021/03/08 01:39:10;;;;;;;18.75;11.32;;;1.90;99.90;;;;;;5006243;28;20204;-82
2021/03/08 01:41:36;;;;;;;20.23;12.10;;;1.80;99.90;;;;;;5005865;28;20217;-83
2021/03/08 01:44:03;;;;;;;15.07;11.30;;;2.00;99.90;;;;;;4992491;28;20228;-82
2021/03/08 01:46:30;;;;;;;16.73;11.15;;;2.00;99.90;;;;;;5001417;28;20208;-81
2021/03/08 01:48:56;;;;;;;17.98;10.95;;;1.90;99.90;;;;;;5002212;28;20205;-81
2021/03/08 01:51:23;;;;;;;21.00;12.40;;;1.80;99.90;;;;;;5002201;28;20201;-82
2021/03/08 01:53:51;;;;;;;16.38;11.25;;;1.90;99.90;;;;;;4999453;28;20315;-81
2021/03/08 01:56:17;;;;;;;18.08;11.40;;;1.80;99.90;;;;;;5000864;28;20266;-81
2021/03/08 01:58:44;;;;;;;19.55;11.70;;;1.70;99.90;;;;;;5019183;28;20215;-82
2021/03/08 02:01:10;;;;;;;18.50;12.13;;;1.90;99.90;;;;;;5012885;28;20209;-83
2021/03/08 02:03:38;;;;;;;19.55;12.32;;;1.80;99.90;;;;;;5002040;28;20306;-81
2021/03/08 02:06:06;;;;;;;15.85;10.85;;;1.60;99.90;;;;;;5001106;28;20209;-82
2021/03/08 02:08:33;;;;;;;19.88;13.07;;;1.70;99.90;;;;;;5001286;28;20216;-82
2021/03/08 02:10:59;;;;;;;18.08;11.73;;;1.80;99.90;;;;;;4998956;28;20235;-82
2021/03/08 02:13:53;;;;;;;17.92;12.18;;;1.50;99.90;;;;;;5000189;28;20740;-82
2021/03/08 02:16:24;;;;;;;16.67;11.07;;;1.70;99.90;;;;;;4993759;28;20208;-83
2021/03/08 02:18:58;;;;;;;18.52;11.40;;;1.60;99.90;;;;;;4991867;28;20208;-83
2021/03/08 02:21:39;;;;;;;17.77;11.52;;;1.80;99.90;;;;;;4998205;28;20695;-83
2021/03/08 02:24:30;;;;;;;19.90;11.70;;;1.90;99.90;;;;;;5012888;28;20243;-83
2021/03/08 02:26:59;;;;;;;18.48;11.55;;;1.80;99.90;;;;;;4997531;28;20201;-82
2021/03/08 02:29:52;;;;;;;17.27;10.80;;;2.00;99.90;;;;;;4997864;28;20283;-83
2021/03/08 02:32:22;;;;;;;17.83;12.27;;;1.80;99.90;;;;;;4998397;28;20686;-82
2021/03/08 02:34:56;;;;;;;21.55;12.90;;;1.80;99.90;;;;;;4998592;28;20801;-83
2021/03/08 02:37:26;;;;;;;19.90;11.95;;;1.70;99.90;;;;;;4998263;28;20193;-83
2021/03/08 02:39:59;;;;;;;18.67;12.70;;;1.80;99.90;;;;;;5004517;28;20224;-83
2021/03/08 02:42:31;;;;;;;18.00;11.35;;;1.60;99.90;;;;;;5011860;28;20276;-83
2021/03/08 02:45:01;;;;;;;19.02;12.50;;;1.60;99.90;;;;;;4998716;28;20216;-83
2021/03/08 02:47:32;;;;;;;19.15;11.88;;;1.70;99.90;;;;;;5000660;28;20215;-83
2021/03/08 02:50:01;;;;;;;21.17;12.52;;;1.80;99.90;;;;;;5005957;28;20308;-83
2021/03/08 02:52:31;;;;;;;16.45;10.73;;;1.70;99.90;;;;;;5019099;28;20283;-83
2021/03/08 02:55:00;;;;;;;15.15;10.95;;;1.70;99.90;;;;;;5006408;28;20224;-84
2021/03/08 02:57:32;;;;;;;17.45;10.82;;;1.90;99.90;;;;;;4999007;28;20686;-83
2021/03/08 03:00:01;;;;;;;18.25;11.32;;;1.60;99.90;;;;;;4998885;28;20215;-83
2021/03/08 03:02:28;;;;;;;17.63;10.45;;;1.70;99.90;;;;;;5004598;28;20585;-83
2021/03/08 03:04:58;;;;;;;17.75;11.05;;;1.70;99.90;;;;;;5009738;28;20231;-83
2021/03/08 03:07:27;;;;;;;16.02;10.90;;;1.50;99.90;;;;;;4991597;28;20224;-83
2021/03/08 03:09:54;;;;;;;17.30;10.35;;;1.70;99.90;;;;;;5011074;28;20216;-82
2021/03/08 03:12:21;;;;;;;16.38;9.77;;;1.60;99.90;;;;;;5023383;28;20583;-84
2021/03/08 03:14:49;;;;;;;17.58;10.60;;;1.40;99.90;;;;;;5016573;28;20235;-83
2021/03/08 03:17:18;;;;;;;17.65;11.55;;;1.40;99.90;;;;;;5003639;28;20792;-83
2021/03/08 03:19:49;;;;;;;16.60;11.43;;;1.30;99.90;;;;;;4997188;28;20201;-83
2021/03/08 03:22:19;;;;;;;14.52;11.15;;;1.40;99.90;;;;;;5013343;28;20288;-83
2021/03/08 03:24:47;;;;;;;19.15;11.70;;;1.20;99.90;;;;;;5017459;28;20239;-83
2021/03/08 03:27:15;;;;;;;16.23;11.35;;;1.40;99.90;;;;;;5003925;28;20232;-83
2021/03/08 03:29:42;;;;;;;20.55;11.02;;;1.40;99.90;;;;;;4998187;28;20234;-83
2021/03/08 03:32:09;;;;;;;18.30;11.68;;;1.10;99.90;;;;;;5014960;28;20291;-83
2021/03/08 03:34:36;;;;;;;14.57;10.65;;;1.40;99.90;;;;;;5021361;28;20432;-83
2021/03/08 03:37:04;;;;;;;18.17;11.65;;;1.20;99.90;;;;;;5018003;28;20262;-83
2021/03/08 03:39:31;;;;;;;17.00;11.93;;;1.30;99.90;;;;;;5014515;28;20212;-83
2021/03/08 03:41:57;;;;;;;18.50;11.50;;;1.30;99.90;;;;;;5012295;28;20218;-83
2021/03/08 03:44:24;;;;;;;18.08;10.80;;;1.20;99.90;;;;;;5018863;28;20232;-83
2021/03/08 03:46:50;;;;;;;17.27;11.68;;;1.20;99.90;;;;;;5006122;28;20212;-83
2021/03/08 03:49:18;;;;;;;19.23;11.73;;;1.20;99.90;;;;;;5008382;28;20220;-83
2021/03/08 03:51:44;;;;;;;18.92;11.48;;;1.40;99.90;;;;;;4997926;28;20344;-83
2021/03/08 03:54:12;;;;;;;17.67;12.50;;;1.10;99.90;;;;;;4998409;28;20581;-82
2021/03/08 03:56:46;;;;;;;16.02;11.40;;;0.90;99.90;;;;;;4998311;28;20200;-83
2021/03/08 03:59:19;;;;;;;17.23;11.85;;;1.10;99.90;;;;;;5003138;28;20192;-83
2021/03/08 04:01:53;;;;;;;16.27;11.13;;;1.30;99.90;;;;;;5005081;28;20258;-83
2021/03/08 04:04:26;;;;;;;16.75;10.98;;;1.20;99.90;;;;;;4997404;28;20235;-83
2021/03/08 04:06:53;;;;;;;19.10;12.27;;;1.20;99.90;;;;;;5010354;28;20265;-83
2021/03/08 04:09:23;;;;;;;17.35;11.23;;;1.10;99.90;;;;;;5017497;28;20243;-83
2021/03/08 04:11:52;;;;;;;17.90;11.48;;;1.30;99.90;;;;;;5005139;28;20211;-83
2021/03/08 04:14:22;;;;;;;16.48;10.68;;;1.30;99.90;;;;;;4999801;28;20956;-83
2021/03/08 04:16:51;;;;;;;20.85;11.77;;;1.20;99.90;;;;;;5016622;28;20737;-83
2021/03/08 04:19:22;;;;;;;17.13;11.30;;;1.20;99.90;;;;;;5003789;28;20228;-83
2021/03/08 04:21:49;;;;;;;16.30;11.13;;;1.30;99.90;;;;;;4997993;28;20189;-82
2021/03/08 04:24:20;;;;;;;19.23;13.25;;;1.00;99.90;;;;;;4978035;28;20731;-82
2021/03/08 04:26:48;;;;;;;17.13;11.07;;;1.00;99.90;;;;;;4982404;28;20214;-81
2021/03/08 04:29:15;;;;;;;20.08;12.55;;;1.00;99.90;;;;;;5026247;28;20329;-82
2021/03/08 04:31:42;;;;;;;18.05;12.10;;;1.00;99.90;;;;;;5013076;28;20298;-82
2021/03/08 04:34:09;;;;;;;17.08;11.45;;;0.80;99.90;;;;;;5000118;28;20270;-83
2021/03/08 04:36:37;;;;;;;19.05;13.32;;;1.00;99.90;;;;;;4999774;28;20215;-82
2021/03/08 04:39:04;;;;;;;21.02;12.95;;;0.90;99.90;;;;;;5000113;28;20339;-84
2021/03/08 04:41:32;;;;;;;16.45;11.95;;;1.00;99.90;;;;;;5005806;28;20201;-83
2021/03/08 04:44:00;;;;;;;20.02;12.70;;;0.80;99.90;;;;;;5012188;28;20259;-82
2021/03/08 04:46:27;;;;;;;16.00;11.07;;;1.00;99.90;;;;;;5026985;28;20272;-83
2021/03/08 04:48:55;;;;;;;18.80;11.57;;;0.90;99.90;;;;;;5015932;28;20598;-83
2021/03/08 04:51:22;;;;;;;19.85;12.10;;;0.80;99.90;;;;;;5012791;28;20315;-83
2021/03/08 04:53:49;;;;;;;17.80;11.82;;;0.70;99.90;;;;;;5012718;28;20784;-82
2021/03/08 04:56:17;;;;;;;19.63;12.48;;;0.70;99.90;;;;;;5007634;28;20299;-83
2021/03/08 04:58:44;;;;;;;18.27;12.40;;;0.80;99.90;;;;;;5000208;28;20556;-83
2021/03/08 05:01:12;;;;;;;21.77;12.90;;;0.60;99.90;;;;;;5008595;28;20196;-84
2021/03/08 05:03:41;;;;;;;20.08;11.90;;;0.70;99.90;;;;;;5017619;28;20282;-83
2021/03/08 05:06:09;;;;;;;16.63;11.30;;;0.80;99.90;;;;;;5011063;28;20241;-83
2021/03/08 05:08:37;;;;;;;20.88;12.10;;;0.70;99.90;;;;;;5022917;28;20755;-84
2021/03/08 05:11:04;;;;;;;19.73;12.43;;;0.80;99.90;;;;;;5006723;28;20223;-83
2021/03/08 05:13:33;;;;;;;21.27;13.02;;;0.60;99.90;;;;;;5001091;28;20302;-83
2021/03/08 05:16:03;;;;;;;19.65;12.05;;;0.70;99.90;;;;;;4987919;28;20738;-83
2021/03/08 05:18:31;;;;;;;18.58;12.75;;;0.50;99.90;;;;;;5017578;28;20208;-83
2021/03/08 05:21:01;;;;;;;20.58;12.30;;;0.80;99.90;;;;;;5018716;28;20673;-83
2021/03/08 05:23:29;;;;;;;18.17;11.90;;;0.70;99.90;;;;;;5000787;28;20244;-83
2021/03/08 05:26:00;;;;;;;19.00;12.50;;;0.80;99.90;;;;;;5017080;28;20262;-83
2021/03/08 05:28:26;;;;;;;19.73;12.98;;;0.80;99.90;;;;;;5019346;28;20192;-84
2021/03/08 05:30:56;;;;;;;20.27;13.45;;;0.70;99.90;;;;;;5017696;28;20695;-83
2021/03/08 05:33:25;;;;;;;19.13;11.80;;;0.60;99.90;;;;;;5018722;28;20230;-83
2021/03/08 05:35:55;;;;;;;18.95;11.80;;;0.70;99.90;;;;;;5021448;28;20207;-84
2021/03/08 05:38:23;;;;;;;19.90;12.60;;;0.60;99.90;;;;;;5020181;28;20223;-83
2021/03/08 05:40:57;;;;;;;21.75;13.52;;;0.50;99.90;;;;;;5012716;28;20746;-83
2021/03/08 05:43:28;;;;;;;20.38;12.50;;;0.50;99.90;;;;;;5018875;28;20708;-84
2021/03/08 05:45:59;;;;;;;20.33;12.85;;;0.50;99.90;;;;;;5011838;28;20205;-83
2021/03/08 05:49:04;;;;;;;21.25;13.45;;;0.70;99.90;;;;;;4999378;28;20225;-83
2021/03/08 05:52:05;;;;;;;18.58;12.32;;;0.50;99.90;;;;;;4990248;28;20263;-84
2021/03/08 05:55:06;;;;;;;21.25;13.30;;;0.50;99.90;;;;;;5002967;28;20270;-83
2021/03/08 05:57:40;;;;;;;25.90;14.00;;;0.70;99.90;;;;;;5004709;28;20214;-83
2021/03/08 06:00:19;;;;;;;19.67;12.90;;;0.50;99.90;;;;;;4998963;28;20610;-83
2021/03/08 06:02:56;;;;;;;19.95;12.95;;;0.40;99.90;;;;;;5018281;28;20269;-83
2021/03/08 06:05:53;;;;;;;21.98;12.95;;;0.60;99.90;;;;;;5006465;28;20358;-84
2021/03/08 06:08:47;;;;;;;21.50;12.98;;;0.40;99.90;;;;;;4999243;28;20211;-84
2021/03/08 06:11:15;;;;;;;20.25;12.77;;;0.50;99.90;;;;;;4996329;28;20224;-84
2021/03/08 06:13:45;;;;;;;21.77;12.60;;;0.60;99.90;;;;;;4998022;28;20879;-84
2021/03/08 06:16:17;;;;;;;20.90;13.23;;;0.30;99.90;;;;;;5005298;28;20205;-83
2021/03/08 06:18:48;;;;;;;20.35;12.43;;;0.60;99.90;;;;;;5008132;28;20551;-83
2021/03/08 06:21:15;;;;;;;23.58;14.00;;;0.40;99.90;;;;;;5015448;28;20743;-81
2021/03/08 06:23:44;;;;;;;21.95;13.10;;;0.40;99.90;;;;;;4997325;28;20236;-84
2021/03/08 06:26:11;;;;;;;22.40;12.90;;;0.30;99.90;;;;;;4996519;28;20560;-81
2021/03/08 06:28:39;;;;;;;18.25;13.20;;;0.60;99.90;;;;;;4997686;28;20201;-82
2021/03/08 06:31:06;;;;;;;21.35;13.95;;;0.50;99.90;;;;;;5017303;28;20292;-83
2021/03/08 06:33:33;;;;;;;21.25;14.02;;;0.50;99.90;;;;;;4997910;28;20224;-84
2021/03/08 06:36:01;;;;;;;23.00;14.07;;;0.40;99.90;;;;;;5007396;28;20196;-82
2021/03/08 06:38:28;;;;;;;22.15;13.85;;;0.30;99.90;;;;;;5016443;28;20266;-83
2021/03/08 06:40:55;;;;;;;25.90;15.30;;;0.50;99.90;;;;;;4999943;28;20263;-82
2021/03/08 06:43:22;;;;;;;25.00;14.40;;;0.50;99.90;;;;;;5002833;28;20705;-82
2021/03/08 06:45:48;;;;;;;22.17;14.98;;;0.50;99.90;;;;;;4996723;28;20193;-82
2021/03/08 06:48:15;;;;;;;22.77;15.38;;;0.40;99.90;;;;;;4996322;28;20204;-82
2021/03/08 06:50:41;;;;;;;28.67;15.10;;;0.50;99.90;;;;;;4996748;28;20228;-82
2021/03/08 06:53:07;;;;;;;21.33;15.05;;;0.60;99.90;;;;;;4997546;28;20207;-82
2021/03/08 06:55:34;;;;;;;22.25;14.40;;;0.50;99.90;;;;;;4999085;28;20299;-81
2021/03/08 06:58:18;;;;;;;21.80;14.95;;;0.70;99.90;;;;;;5017056;28;20270;-82
2021/03/08 07:00:44;;;;;;;26.85;14.52;;;0.70;99.90;;;;;;5016954;28;20200;-82
2021/03/08 07:03:32;;;;;;;22.70;14.55;;;0.80;99.90;;;;;;4997238;28;20212;-83
2021/03/08 07:06:17;;;;;;;23.17;15.35;;;0.90;99.90;;;;;;4997609;28;20201;-83
2021/03/08 07:08:45;;;;;;;25.52;15.18;;;0.90;99.90;;;;;;4996672;28;20240;-81
2021/03/08 07:11:16;;;;;;;29.25;16.15;;;1.10;99.90;;;;;;5013859;28;20223;-83
2021/03/08 07:13:43;;;;;;;27.23;15.18;;;1.10;99.90;;;;;;5012477;28;20219;-84
2021/03/08 07:16:09;;;;;;;22.88;15.35;;;1.50;99.90;;;;;;5004248;28;20205;-83
2021/03/08 07:18:36;;;;;;;24.80;15.77;;;1.30;99.90;;;;;;4999552;28;20216;-81
2021/03/08 07:21:19;;;;;;;26.73;16.33;;;1.50;99.90;;;;;;5001337;28;20204;-81
2021/03/08 07:26:19;;;;;;;20.75;14.40;;;1.50;99.90;;;;;;4992499;28;20513;-83
2021/03/08 07:29:07;;;;;;;22.00;13.60;;;1.70;99.90;;;;;;5001499;28;20623;-82
2021/03/08 07:31:35;;;;;;;24.92;15.73;;;1.60;99.90;;;;;;4994813;28;20224;-83
2021/03/08 07:34:02;;;;;;;27.15;15.80;;;1.60;99.90;;;;;;4995127;28;20230;-83
2021/03/08 07:36:29;;;;;;;24.02;16.58;;;1.60;99.90;;;;;;4980082;28;20201;-83
2021/03/08 07:38:55;;;;;;;31.85;15.60;;;1.50;99.90;;;;;;4976428;28;20200;-83
2021/03/08 07:41:24;;;;;;;24.67;15.95;;;1.70;99.90;;;;;;4987348;28;20192;-84
2021/03/08 07:44:04;;;;;;;26.77;15.45;;;1.70;99.90;;;;;;4981568;28;20209;-85
2021/03/08 07:46:33;;;;;;;22.20;15.77;;;1.80;99.90;;;;;;4981067;28;20205;-83
2021/03/08 07:49:00;;;;;;;33.20;20.15;;;2.00;99.90;;;;;;4989587;28;20296;-83
2021/03/08 07:51:27;;;;;;;23.90;15.13;;;2.00;99.90;;;;;;4981382;28;20307;-83
2021/03/08 07:53:59;;;;;;;34.45;18.17;;;2.00;99.90;;;;;;4978148;28;20340;-82
2021/03/08 07:56:26;;;;;;;34.42;17.92;;;2.20;99.90;;;;;;4986380;28;20262;-75
2021/03/08 07:58:54;;;;;;;26.17;17.30;;;2.10;99.90;;;;;;4977758;28;20201;-76
2021/03/08 08:01:21;;;;;;;31.45;17.67;;;2.40;99.90;;;;;;4984083;28;20211;-76
2021/03/08 08:03:47;;;;;;;29.08;17.17;;;2.30;99.90;;;;;;4981958;28;20594;-77
2021/03/08 08:06:20;;;;;;;33.10;20.48;;;2.30;99.90;;;;;;4993010;28;20204;-77
2021/03/08 08:08:47;;;;;;;23.35;16.50;;;2.40;99.90;;;;;;4995251;28;20249;-77
2021/03/08 08:11:16;;;;;;;28.88;15.95;;;2.60;99.90;;;;;;4985869;28;20252;-77
2021/03/08 08:13:44;;;;;;;29.98;18.95;;;2.60;99.90;;;;;;4992253;28;20216;-76
2021/03/08 08:16:13;;;;;;;27.42;17.45;;;2.80;99.90;;;;;;4994137;28;20656;-79
2021/03/08 08:18:41;;;;;;;21.05;15.82;;;2.80;99.90;;;;;;4989365;28;20204;-76
2021/03/08 08:21:12;;;;;;;25.45;16.85;;;2.80;99.90;;;;;;4997373;28;20228;-76
2021/03/08 08:23:41;;;;;;;33.72;19.10;;;2.90;99.90;;;;;;4975051;28;20236;-76
2021/03/08 08:26:10;;;;;;;26.40;17.08;;;2.90;99.90;;;;;;4976495;28;20213;-76
2021/03/08 08:28:39;;;;;;;24.10;16.30;;;2.70;99.90;;;;;;4986185;28;20272;-82
2021/03/08 08:31:06;;;;;;;25.10;15.45;;;2.70;99.90;;;;;;4993120;28;20208;-81
2021/03/08 08:33:34;;;;;;;25.13;15.60;;;2.70;99.90;;;;;;5030355;28;20208;-83
2021/03/08 08:36:19;;;;;;;32.90;17.48;;;2.90;99.90;;;;;;5019271;28;20231;-81
2021/03/08 08:39:14;;;;;;;23.38;15.98;;;3.00;99.90;;;;;;5017816;28;20212;-81
2021/03/08 08:41:41;;;;;;;23.73;14.10;;;3.20;99.90;;;;;;5017827;28;20220;-81
2021/03/08 08:44:38;;;;;;;26.75;15.43;;;3.00;99.90;;;;;;5002412;28;20221;-81
2021/03/08 08:47:26;;;;;;;23.55;15.95;;;3.00;99.90;;;;;;4981080;28;20206;-82
2021/03/08 08:49:55;;;;;;;23.38;15.95;;;3.10;99.90;;;;;;4997119;28;20256;-85
2021/03/08 08:52:48;;;;;;;22.80;16.17;;;3.40;99.90;;;;;;4999723;28;20646;-82
2021/03/08 08:55:15;;;;;;;31.58;16.15;;;3.60;99.90;;;;;;4986850;28;20234;-82
2021/03/08 08:58:15;;;;;;;21.50;15.30;;;3.40;99.90;;;;;;5001448;28;20264;-82
2021/03/08 09:00:42;;;;;;;19.80;13.85;;;3.70;99.90;;;;;;4981510;28;20197;-83
2021/03/08 09:03:16;;;;;;;23.25;13.77;;;3.50;99.90;;;;;;4981286;28;20202;-82
2021/03/08 09:05:44;;;;;;;23.42;15.82;;;3.50;99.90;;;;;;4985884;28;20235;-82
2021/03/08 09:08:52;;;;;;;25.30;16.40;;;3.50;99.90;;;;;;4983019;28;20213;-82
2021/03/08 09:11:43;;;;;;;24.58;17.25;;;3.70;99.90;;;;;;4975935;28;20221;-85
2021/03/08 09:14:30;;;;;;;23.35;16.65;;;3.40;99.90;;;;;;4992329;28;20232;-83
2021/03/08 09:17:19;;;;;;;21.90;14.38;;;3.70;99.90;;;;;;4979940;28;20245;-83
2021/03/08 09:19:48;;;;;;;22.13;14.57;;;3.90;99.90;;;;;;4994443;28;20228;-83
2021/03/08 09:22:44;;;;;;;22.63;15.23;;;3.80;99.90;;;;;;4997761;28;20291;-80
2021/03/08 09:25:19;;;;;;;21.35;14.90;;;4.00;99.90;;;;;;4978141;28;20236;-80
2021/03/08 09:27:46;;;;;;;20.67;13.43;;;4.00;99.90;;;;;;4998769;28;20212;-84
2021/03/08 09:30:15;;;;;;;23.83;15.50;;;4.20;99.90;;;;;;4994845;28;20252;-80
2021/03/08 09:32:53;;;;;;;20.45;14.85;;;4.10;99.90;;;;;;4992058;28;20251;-89
2021/03/08 09:35:21;;;;;;;18.67;12.70;;;4.20;99.90;;;;;;4984923;28;20221;-84
2021/03/08 09:37:51;;;;;;;26.60;17.00;;;4.10;99.90;;;;;;4979154;28;20289;-84
2021/03/08 09:40:19;;;;;;;28.60;14.43;;;4.20;99.90;;;;;;4988716;28;20213;-84
2021/03/08 09:42:46;;;;;;;23.17;13.50;;;4.30;99.90;;;;;;4997571;28;20326;-84
2021/03/08 09:45:20;;;;;;;18.92;14.57;;;4.40;99.90;;;;;;4997193;28;20229;-84
2021/03/08 09:47:48;;;;;;;22.77;15.40;;;4.60;99.90;;;;;;4993525;28;20200;-84
2021/03/08 09:50:17;;;;;;;21.85;14.27;;;4.50;99.90;;;;;;4981973;28;20674;-84
2021/03/08 09:52:47;;;;;;;17.58;12.00;;;4.70;99.90;;;;;;4998762;28;20225;-87
2021/03/08 09:55:23;;;;;;;17.25;11.10;;;4.80;99.70;;;;;;4994472;28;20232;-77
2021/03/08 09:57:49;;;;;;;19.40;11.95;;;4.80;99.70;;;;;;4978594;28;20232;-84
2021/03/08 10:00:18;;;;;;;20.75;14.82;;;4.70;99.30;;;;;;4977579;28;20205;-83
2021/03/08 10:02:45;;;;;;;23.10;14.85;;;4.60;99.70;;;;;;4977744;28;20232;-83
2021/03/08 10:05:13;;;;;;;19.63;14.57;;;4.60;99.30;;;;;;4978597;28;20319;-83
2021/03/08 10:07:53;;;;;;;16.95;12.95;;;4.70;99.20;;;;;;4977822;28;20300;-83
2021/03/08 10:10:22;;;;;;;17.52;13.45;;;4.90;98.80;;;;;;4976964;28;20260;-83
2021/03/08 10:12:57;;;;;;;20.40;12.23;;;5.10;98.50;;;;;;4978423;28;20572;-83
2021/03/08 10:15:23;;;;;;;11.52;8.15;;;4.80;98.00;;;;;;4979663;28;20250;-83
2021/03/08 10:17:56;;;;;;;17.95;12.10;;;4.80;98.50;;;;;;4996768;28;20216;-82
2021/03/08 10:20:23;;;;;;;21.15;15.02;;;4.80;98.30;;;;;;4994480;28;20269;-81
2021/03/08 10:22:49;;;;;;;21.08;12.40;;;4.80;98.40;;;;;;4995106;28;20604;-85
2021/03/08 10:25:21;;;;;;;18.25;11.43;;;5.20;98.20;;;;;;4995380;28;20247;-82
2021/03/08 10:27:52;;;;;;;22.88;14.40;;;5.20;97.80;;;;;;5002031;28;20212;-82
2021/03/08 10:30:19;;;;;;;15.95;11.18;;;5.20;97.90;;;;;;5001803;28;20252;-82
2021/03/08 10:32:46;;;;;;;20.00;12.18;;;5.30;97.50;;;;;;4984354;28;20300;-82
2021/03/08 10:35:13;;;;;;;21.08;13.93;;;5.40;97.10;;;;;;4988225;28;20237;-83
2021/03/08 10:37:41;;;;;;;14.35;11.40;;;5.50;97.00;;;;;;4981230;28;20216;-83
2021/03/08 10:40:09;;;;;;;17.73;12.13;;;5.70;96.80;;;;;;4983404;28;20211;-84
2021/03/08 10:42:37;;;;;;;11.13;7.55;;;5.80;96.30;;;;;;4986549;28;20288;-84
2021/03/08 10:45:10;;;;;;;17.50;11.38;;;5.80;95.80;;;;;;4979886;28;20257;-84
2021/03/08 10:47:36;;;;;;;16.00;10.23;;;5.90;95.30;;;;;;4981275;28;20281;-83
2021/03/08 10:50:06;;;;;;;15.73;11.65;;;5.90;94.50;;;;;;4998540;28;20255;-85
2021/03/08 10:52:33;;;;;;;18.80;12.73;;;6.00;94.60;;;;;;5003380;28;20235;-85
2021/03/08 10:55:00;;;;;;;12.18;8.45;;;5.90;94.60;;;;;;4998732;28;20224;-85
2021/03/08 10:57:27;;;;;;;15.05;10.63;;;6.20;94.80;;;;;;5001420;28;20240;-85
2021/03/08 10:59:55;;;;;;;20.77;13.32;;;6.10;94.80;;;;;;5006190;28;20212;-84
2021/03/08 11:02:22;;;;;;;14.05;10.07;;;6.20;94.70;;;;;;4997748;28;20239;-85
2021/03/08 11:04:50;;;;;;;14.25;10.23;;;6.40;93.80;;;;;;4998792;28;20260;-82
2021/03/08 11:07:29;;;;;;;12.70;8.65;;;6.20;93.00;;;;;;4996304;28;20204;-82
2021/03/08 11:09:55;;;;;;;10.70;6.10;;;6.20;92.40;;;;;;4993951;28;20288;-83
2021/03/08 11:12:23;;;;;;;7.45;5.45;;;6.30;92.50;;;;;;4994025;28;20742;-82
2021/03/08 11:14:51;;;;;;;13.52;9.43;;;6.50;92.60;;;;;;4989753;28;20217;-83
2021/03/08 11:17:30;;;;;;;12.77;8.65;;;6.50;92.30;;;;;;4975632;28;20586;-84
2021/03/08 11:20:08;;;;;;;13.70;9.38;;;6.50;91.70;;;;;;4975196;28;20342;-83
2021/03/08 11:22:56;;;;;;;9.75;5.55;;;6.60;91.10;;;;;;4978543;28;20223;-83
2021/03/08 11:25:31;;;;;;;16.35;9.38;;;6.60;90.90;;;;;;4977481;28;20241;-83
2021/03/08 11:27:59;;;;;;;14.50;9.07;;;6.60;91.00;;;;;;4974357;28;20343;-83
2021/03/08 11:30:27;;;;;;;13.65;9.00;;;6.60;91.10;;;;;;4980640;28;20244;-83
2021/03/08 11:32:56;;;;;;;13.13;8.95;;;6.50;90.90;;;;;;4995918;28;20255;-83
2021/03/08 11:35:24;;;;;;;13.05;9.48;;;6.60;91.10;;;;;;4996683;28;20228;-81
2021/03/08 11:37:53;;;;;;;17.73;11.07;;;6.50;91.50;;;;;;4997016;28;20300;-80
2021/03/08 11:40:21;;;;;;;14.75;9.10;;;6.70;91.60;;;;;;4983035;28;20296;-81
2021/03/08 11:42:47;;;;;;;12.93;8.77;;;6.60;91.30;;;;;;4980718;28;20209;-81
2021/03/08 11:45:16;;;;;;;16.05;10.30;;;6.60;90.70;;;;;;4977644;28;20390;-81
2021/03/08 11:47:42;;;;;;;14.70;9.40;;;6.60;90.50;;;;;;4988736;28;20268;-80
2021/03/08 11:50:12;;;;;;;14.25;10.30;;;6.70;90.90;;;;;;4997345;28;20303;-80
2021/03/08 11:52:38;;;;;;;15.73;10.45;;;6.40;90.50;;;;;;4979646;28;20307;-81
2021/03/08 11:55:06;;;;;;;15.80;11.20;;;6.50;91.20;;;;;;4984181;28;20232;-86
2021/03/08 11:57:32;;;;;;;14.38;10.60;;;6.80;91.40;;;;;;4973799;28;20304;-86
2021/03/08 11:59:59;;;;;;;15.65;10.75;;;6.60;91.00;;;;;;4975744;28;20896;-78
2021/03/08 12:02:25;;;;;;;13.65;11.00;;;6.70;90.20;;;;;;4983308;28;20236;-79
2021/03/08 12:04:52;;;;;;;15.27;10.35;;;6.70;90.60;;;;;;4988597;28;20221;-79
2021/03/08 12:07:20;;;;;;;15.00;10.55;;;6.90;90.70;;;;;;4984402;28;20201;-80
2021/03/08 12:09:46;;;;;;;16.20;11.98;;;7.00;90.10;;;;;;4986092;28;20224;-80
2021/03/08 12:12:13;;;;;;;13.80;10.05;;;6.90;89.30;;;;;;5003703;28;20275;-79
2021/03/08 12:14:39;;;;;;;14.82;10.27;;;6.90;85.70;;;;;;4993266;28;20230;-78
2021/03/08 12:17:05;;;;;;;16.08;11.00;;;7.20;87.50;;;;;;4986445;28;20204;-79
2021/03/08 12:19:32;;;;;;;13.60;10.68;;;7.10;87.90;;;;;;4988750;28;20205;-80
2021/03/08 12:21:58;;;;;;;15.93;10.27;;;7.10;87.30;;;;;;4979400;28;20221;-79
2021/03/08 12:24:26;;;;;;;14.25;10.68;;;7.20;86.80;;;;;;4981509;28;20877;-80
2021/03/08 12:26:52;;;;;;;16.27;11.80;;;7.30;86.70;;;;;;4985424;28;20192;-86
2021/03/08 12:29:19;;;;;;;14.50;9.90;;;7.30;85.90;;;;;;4997297;28;20383;-82
2021/03/08 12:31:45;;;;;;;12.95;9.25;;;7.20;84.60;;;;;;4995160;28;20231;-82
2021/03/08 12:34:11;;;;;;;13.07;9.50;;;7.20;82.00;;;;;;5016218;28;20307;-82
2021/03/08 12:36:38;;;;;;;16.17;9.45;;;7.10;80.90;;;;;;4988953;28;20300;-82
2021/03/08 12:39:04;;;;;;;15.05;10.10;;;7.50;81.50;;;;;;4993272;28;20205;-82
2021/03/08 12:41:32;;;;;;;15.82;10.82;;;7.40;81.30;;;;;;4976126;28;20241;-82
2021/03/08 12:43:58;;;;;;;19.52;10.20;;;7.70;81.40;;;;;;4976396;28;20216;-82
2021/03/08 12:46:25;;;;;;;21.80;12.18;;;7.70;81.10;;;;;;4983413;28;20208;-82
2021/03/08 12:48:52;;;;;;;15.40;10.00;;;7.70;81.40;;;;;;5001979;28;20205;-82
2021/03/08 12:51:18;;;;;;;17.05;10.20;;;7.80;80.80;;;;;;4996004;28;20479;-82
2021/03/08 12:53:44;;;;;;;11.60;8.98;;;7.70;79.90;;;;;;4994287;28;20228;-79
2021/03/08 12:56:11;;;;;;;11.95;8.00;;;7.80;79.40;;;;;;4997668;28;20236;-81